Observations for CAGLIARI ELMAS, Italy (LIEE)

LIEE 260450Z 31004KT CAVOK 21/20 Q1016  
LIEE 260420Z 32005KT CAVOK 21/20 Q1016  
LIEE 260320Z 34006KT 9999 FEW020 21/20 Q1016
LIEE 260250Z 31003KT CAVOK 22/20 Q1015  
LIEE 260220Z VRB01KT CAVOK 22/20 Q1015  
LIEE 260150Z 35002KT CAVOK 22/20 Q1016  
LIEE 260120Z 36002KT CAVOK 23/21 Q1016  
LIEE 260050Z VRB02KT CAVOK 23/21 Q1016  
LIEE 260020Z 06004KT CAVOK 23/21 Q1016  
LIEE 252350Z 14005KT CAVOK 25/22 Q1016  
LIEE 252320Z 08003KT CAVOK 24/22 Q1016  
LIEE 252250Z 07003KT CAVOK 25/21 Q1016  
LIEE 252220Z 07004KT CAVOK 24/21 Q1016  
LIEE 252150Z 07005KT CAVOK 24/21 Q1016  
LIEE 252120Z 06005KT CAVOK 25/21 Q1017  
LIEE 252050Z 14004KT CAVOK 25/22 Q1016  
LIEE 252020Z 13006KT CAVOK 26/21 Q1016  
LIEE 251950Z 13006KT 9999 FEW020 26/22 Q1016
LIEE 251920Z 14007KT 9999 FEW020 26/22 Q1016
LIEE 251850Z 14007KT 9999 FEW020 26/21 Q1015
LIEE 251820Z 13008KT 9999 FEW020 SCT050 26/21 Q1015 
LIEE 251750Z 14009KT 9999 FEW020 27/21 Q1015
LIEE 251720Z 15010KT 9999 FEW020 27/21 Q1015
LIEE 251620Z 14010KT 9999 FEW020 27/21 Q1015
LIEE 251550Z 15011KT 9999 FEW020 27/20 Q1015
LIEE 251520Z 15011KT 9999 FEW020 29/20 Q1015
LIEE 251450Z 16011KT 9999 FEW020 29/21 Q1015
LIEE 251350Z 16011KT 9999 FEW020 29/21 Q1015
LIEE 251320Z 16011KT 9999 FEW020 29/21 Q1015
LIEE 251250Z 17009KT 9999 FEW020 29/20 Q1015
LIEE 251220Z 17010KT 9999 FEW020 30/21 Q1016
LIEE 251150Z 16009KT 9999 FEW020 29/20 Q1016
LIEE 251120Z 16009KT 9999 FEW020 30/19 Q1016
LIEE 251050Z 15010KT 9999 FEW020 30/20 Q1016
LIEE 251020Z 14010KT 9999 FEW020 29/21 Q1016
LIEE 250950Z 14008KT 9999 FEW020 30/22 Q1016
LIEE 250920Z 22004KT 180V250 CAVOK 28/22 Q1016  
LIEE 250850Z 22005KT 180V260 9999 FEW020 28/21 Q1016
LIEE 250820Z 26005KT 230V290 9999 FEW020 27/22 Q1016
LIEE 250750Z 29005KT 260V330 CAVOK 26/21 Q1016  
LIEE 250720Z 31004KT 270V340 CAVOK 25/21 Q1016  
LIEE 250650Z 31005KT 9999 FEW020 23/20 Q1016
LIEE 250620Z 32006KT 9999 FEW020 22/20 Q1016
LIEE 250550Z 32005KT 9999 FEW015 22/20 Q1016
LIEE 250520Z 32006KT 9999 FEW015 21/19 Q1016
LIEE 250450Z 33004KT CAVOK 21/19 Q1016